sensor_id;sensor_type;location;lat;lon;timestamp;temperature;humidity
3023;DHT22;1521;53.584;9.938;2023-06-14T00:00:18;15.90;1.00
3023;DHT22;1521;53.584;9.938;2023-06-14T00:02:45;16.00;1.00
3023;DHT22;1521;53.584;9.938;2023-06-14T00:05:11;16.00;1.00
3023;DHT22;1521;53.584;9.938;2023-06-14T00:07:39;16.00;1.00
3023;DHT22;1521;53.584;9.938;2023-06-14T00:10:10;16.10;1.00
3023;DHT22;1521;53.584;9.938;2023-06-14T00:12:36;16.10;1.00
3023;DHT22;1521;53.584;9.938;2023-06-14T00:15:01;16.10;1.00
3023;DHT22;1521;53.584;9.938;2023-06-14T00:17:27;16.10;1.00
3023;DHT22;1521;53.584;9.938;2023-06-14T00:19:57;16.00;1.00
3023;DHT22;1521;53.584;9.938;2023-06-14T00:22:23;16.00;1.00
3023;DHT22;1521;53.584;9.938;2023-06-14T00:24:54;16.00;1.00
3023;DHT22;1521;53.584;9.938;2023-06-14T00:27:20;16.10;1.00
3023;DHT22;1521;53.584;9.938;2023-06-14T00:29:45;16.10;1.00
3023;DHT22;1521;53.584;9.938;2023-06-14T00:32:11;16.00;1.00
3023;DHT22;1521;53.584;9.938;2023-06-14T00:34:36;15.90;1.00
3023;DHT22;1521;53.584;9.938;2023-06-14T00:37:02;15.90;1.00
3023;DHT22;1521;53.584;9.938;2023-06-14T00:39:28;15.90;1.00
3023;DHT22;1521;53.584;9.938;2023-06-14T00:41:53;15.80;1.00
3023;DHT22;1521;53.584;9.938;2023-06-14T00:44:19;15.70;1.00
3023;DHT22;1521;53.584;9.938;2023-06-14T00:46:47;15.80;1.00
3023;DHT22;1521;53.584;9.938;2023-06-14T00:49:17;15.70;1.00
3023;DHT22;1521;53.584;9.938;2023-06-14T00:51:43;15.70;1.00
3023;DHT22;1521;53.584;9.938;2023-06-14T00:54:09;15.70;1.00
3023;DHT22;1521;53.584;9.938;2023-06-14T00:56:38;15.60;1.00
3023;DHT22;1521;53.584;9.938;2023-06-14T00:59:04;15.50;1.00
3023;DHT22;1521;53.584;9.938;2023-06-14T01:01:31;15.50;1.00
3023;DHT22;1521;53.584;9.938;2023-06-14T01:04:00;15.40;1.00
3023;DHT22;1521;53.584;9.938;2023-06-14T01:06:45;15.40;1.00
3023;DHT22;1521;53.584;9.938;2023-06-14T01:09:32;15.30;1.00
3023;DHT22;1521;53.584;9.938;2023-06-14T01:12:24;15.40;1.00
3023;DHT22;1521;53.584;9.938;2023-06-14T01:14:55;15.50;1.00
3023;DHT22;1521;53.584;9.938;2023-06-14T01:17:23;15.50;1.00
3023;DHT22;1521;53.584;9.938;2023-06-14T01:19:51;15.50;1.00
3023;DHT22;1521;53.584;9.938;2023-06-14T01:22:25;15.60;1.00
3023;DHT22;1521;53.584;9.938;2023-06-14T01:24:51;15.60;1.00
3023;DHT22;1521;53.584;9.938;2023-06-14T01:27:23;15.60;1.00
3023;DHT22;1521;53.584;9.938;2023-06-14T01:29:54;15.50;1.00
3023;DHT22;1521;53.584;9.938;2023-06-14T01:32:23;15.30;1.00
3023;DHT22;1521;53.584;9.938;2023-06-14T01:34:50;15.20;1.00
3023;DHT22;1521;53.584;9.938;2023-06-14T01:37:16;15.30;1.00
3023;DHT22;1521;53.584;9.938;2023-06-14T01:39:43;15.50;1.00
3023;DHT22;1521;53.584;9.938;2023-06-14T01:42:10;15.60;1.00
3023;DHT22;1521;53.584;9.938;2023-06-14T01:44:37;15.70;1.00
3023;DHT22;1521;53.584;9.938;2023-06-14T01:47:02;15.70;1.00
3023;DHT22;1521;53.584;9.938;2023-06-14T01:49:28;15.70;1.00
3023;DHT22;1521;53.584;9.938;2023-06-14T01:51:54;15.50;1.00
3023;DHT22;1521;53.584;9.938;2023-06-14T01:54:19;15.60;1.00
3023;DHT22;1521;53.584;9.938;2023-06-14T01:56:47;15.60;1.00
3023;DHT22;1521;53.584;9.938;2023-06-14T01:59:12;15.70;1.00
3023;DHT22;1521;53.584;9.938;2023-06-14T02:01:38;15.60;1.00
3023;DHT22;1521;53.584;9.938;2023-06-14T02:04:03;15.60;1.00
3023;DHT22;1521;53.584;9.938;2023-06-14T02:06:29;15.80;1.00
3023;DHT22;1521;53.584;9.938;2023-06-14T02:08:55;15.80;1.00
3023;DHT22;1521;53.584;9.938;2023-06-14T02:11:21;15.90;1.00
3023;DHT22;1521;53.584;9.938;2023-06-14T02:13:46;16.00;1.00
3023;DHT22;1521;53.584;9.938;2023-06-14T02:16:12;16.00;1.00
3023;DHT22;1521;53.584;9.938;2023-06-14T02:18:38;16.00;1.00
3023;DHT22;1521;53.584;9.938;2023-06-14T02:21:03;15.80;1.00
3023;DHT22;1521;53.584;9.938;2023-06-14T02:23:29;15.80;1.00
3023;DHT22;1521;53.584;9.938;2023-06-14T02:25:54;15.80;1.00
3023;DHT22;1521;53.584;9.938;2023-06-14T02:28:20;15.80;1.00
3023;DHT22;1521;53.584;9.938;2023-06-14T02:30:46;15.90;1.00
3023;DHT22;1521;53.584;9.938;2023-06-14T02:33:11;15.90;1.00
3023;DHT22;1521;53.584;9.938;2023-06-14T02:35:38;16.00;1.00
3023;DHT22;1521;53.584;9.938;2023-06-14T02:38:04;16.10;1.00
3023;DHT22;1521;53.584;9.938;2023-06-14T02:40:29;16.00;1.00
3023;DHT22;1521;53.584;9.938;2023-06-14T02:42:55;16.00;1.00
3023;DHT22;1521;53.584;9.938;2023-06-14T02:45:20;16.00;1.00
3023;DHT22;1521;53.584;9.938;2023-06-14T02:47:46;15.90;1.00
3023;DHT22;1521;53.584;9.938;2023-06-14T02:50:12;15.90;1.00
3023;DHT22;1521;53.584;9.938;2023-06-14T02:52:37;15.90;1.00
3023;DHT22;1521;53.584;9.938;2023-06-14T02:55:03;16.00;1.00
3023;DHT22;1521;53.584;9.938;2023-06-14T02:57:30;16.00;1.00
3023;DHT22;1521;53.584;9.938;2023-06-14T02:59:55;16.00;1.00
3023;DHT22;1521;53.584;9.938;2023-06-14T03:02:21;15.90;1.00
3023;DHT22;1521;53.584;9.938;2023-06-14T03:04:46;15.90;1.00
3023;DHT22;1521;53.584;9.938;2023-06-14T03:07:12;15.90;1.00
3023;DHT22;1521;53.584;9.938;2023-06-14T03:09:39;15.90;1.00
3023;DHT22;1521;53.584;9.938;2023-06-14T03:12:05;15.90;1.00
3023;DHT22;1521;53.584;9.938;2023-06-14T03:14:35;16.00;1.00
3023;DHT22;1521;53.584;9.938;2023-06-14T03:17:01;16.00;1.00
3023;DHT22;1521;53.584;9.938;2023-06-14T03:19:27;16.00;1.00
3023;DHT22;1521;53.584;9.938;2023-06-14T03:21:53;15.90;1.00
3023;DHT22;1521;53.584;9.938;2023-06-14T03:24:22;15.90;1.00
3023;DHT22;1521;53.584;9.938;2023-06-14T03:26:48;15.80;1.00
3023;DHT22;1521;53.584;9.938;2023-06-14T03:29:14;15.60;1.00
3023;DHT22;1521;53.584;9.938;2023-06-14T03:31:59;15.50;1.00
3023;DHT22;1521;53.584;9.938;2023-06-14T03:34:25;15.50;1.00
3023;DHT22;1521;53.584;9.938;2023-06-14T03:36:51;15.60;1.00
3023;DHT22;1521;53.584;9.938;2023-06-14T03:39:17;15.60;1.00
3023;DHT22;1521;53.584;9.938;2023-06-14T03:41:42;15.60;1.00
3023;DHT22;1521;53.584;9.938;2023-06-14T03:44:08;15.60;1.00
3023;DHT22;1521;53.584;9.938;2023-06-14T03:46:33;15.40;1.00
3023;DHT22;1521;53.584;9.938;2023-06-14T03:48:59;15.40;1.00
3023;DHT22;1521;53.584;9.938;2023-06-14T03:51:25;15.30;1.00
3023;DHT22;1521;53.584;9.938;2023-06-14T03:53:51;15.30;1.00
3023;DHT22;1521;53.584;9.938;2023-06-14T03:56:17;15.30;1.00
3023;DHT22;1521;53.584;9.938;2023-06-14T03:58:42;15.30;1.00
3023;DHT22;1521;53.584;9.938;2023-06-14T04:01:08;15.40;1.00
3023;DHT22;1521;53.584;9.938;2023-06-14T04:03:33;15.40;1.00
3023;DHT22;1521;53.584;9.938;2023-06-14T04:06:00;15.50;1.00
3023;DHT22;1521;53.584;9.938;2023-06-14T04:08:25;15.50;1.00
3023;DHT22;1521;53.584;9.938;2023-06-14T04:10:51;15.50;1.00
3023;DHT22;1521;53.584;9.938;2023-06-14T04:13:17;15.50;1.00
3023;DHT22;1521;53.584;9.938;2023-06-14T04:15:42;15.40;1.00
3023;DHT22;1521;53.584;9.938;2023-06-14T04:18:09;15.40;1.00
3023;DHT22;1521;53.584;9.938;2023-06-14T04:20:35;15.50;1.00
3023;DHT22;1521;53.584;9.938;2023-06-14T04:23:16;15.60;1.00
3023;DHT22;1521;53.584;9.938;2023-06-14T04:25:43;15.70;1.00
3023;DHT22;1521;53.584;9.938;2023-06-14T04:28:11;15.80;1.00
3023;DHT22;1521;53.584;9.938;2023-06-14T04:30:37;15.90;1.00
3023;DHT22;1521;53.584;9.938;2023-06-14T04:33:04;15.80;1.00
3023;DHT22;1521;53.584;9.938;2023-06-14T04:35:31;15.90;1.00
3023;DHT22;1521;53.584;9.938;2023-06-14T04:37:58;15.90;1.00
3023;DHT22;1521;53.584;9.938;2023-06-14T04:40:24;15.90;1.00
3023;DHT22;1521;53.584;9.938;2023-06-14T04:42:50;15.90;1.00
3023;DHT22;1521;53.584;9.938;2023-06-14T04:45:16;16.10;1.00
3023;DHT22;1521;53.584;9.938;2023-06-14T04:47:42;16.20;1.00
3023;DHT22;1521;53.584;9.938;2023-06-14T04:50:10;16.30;1.00
3023;DHT22;1521;53.584;9.938;2023-06-14T04:52:36;16.40;1.00
3023;DHT22;1521;53.584;9.938;2023-06-14T04:55:03;16.50;1.00
3023;DHT22;1521;53.584;9.938;2023-06-14T04:57:28;16.60;1.00
3023;DHT22;1521;53.584;9.938;2023-06-14T04:59:54;16.70;1.00
3023;DHT22;1521;53.584;9.938;2023-06-14T05:02:23;16.80;1.00
3023;DHT22;1521;53.584;9.938;2023-06-14T05:04:50;16.90;1.00
3023;DHT22;1521;53.584;9.938;2023-06-14T05:07:16;17.00;1.00
3023;DHT22;1521;53.584;9.938;2023-06-14T05:09:42;17.20;1.00
3023;DHT22;1521;53.584;9.938;2023-06-14T05:12:07;17.30;1.00
3023;DHT22;1521;53.584;9.938;2023-06-14T05:14:34;17.50;1.00
3023;DHT22;1521;53.584;9.938;2023-06-14T05:17:00;17.60;1.00
3023;DHT22;1521;53.584;9.938;2023-06-14T05:19:25;17.60;1.00
3023;DHT22;1521;53.584;9.938;2023-06-14T05:21:51;17.80;1.00
3023;DHT22;1521;53.584;9.938;2023-06-14T05:24:18;18.00;1.00
3023;DHT22;1521;53.584;9.938;2023-06-14T05:26:43;18.10;1.00
3023;DHT22;1521;53.584;9.938;2023-06-14T05:29:09;18.30;1.00
3023;DHT22;1521;53.584;9.938;2023-06-14T05:31:34;18.40;1.00
3023;DHT22;1521;53.584;9.938;2023-06-14T05:34:00;18.50;1.00
3023;DHT22;1521;53.584;9.938;2023-06-14T05:36:26;18.70;1.00
3023;DHT22;1521;53.584;9.938;2023-06-14T05:38:53;18.80;1.00
3023;DHT22;1521;53.584;9.938;2023-06-14T05:41:27;19.00;1.00
3023;DHT22;1521;53.584;9.938;2023-06-14T05:43:54;19.10;1.00
3023;DHT22;1521;53.584;9.938;2023-06-14T05:46:20;19.00;1.00
3023;DHT22;1521;53.584;9.938;2023-06-14T05:48:49;19.10;1.00
3023;DHT22;1521;53.584;9.938;2023-06-14T05:51:15;19.40;1.00
3023;DHT22;1521;53.584;9.938;2023-06-14T05:53:47;19.60;1.00
3023;DHT22;1521;53.584;9.938;2023-06-14T05:56:14;19.80;1.00
3023;DHT22;1521;53.584;9.938;2023-06-14T05:58:40;19.80;1.00
3023;DHT22;1521;53.584;9.938;2023-06-14T06:01:05;20.00;1.00
3023;DHT22;1521;53.584;9.938;2023-06-14T06:03:31;20.20;1.00
3023;DHT22;1521;53.584;9.938;2023-06-14T06:05:58;20.30;1.00
3023;DHT22;1521;53.584;9.938;2023-06-14T06:08:23;20.30;1.00
3023;DHT22;1521;53.584;9.938;2023-06-14T06:10:49;20.40;1.00
3023;DHT22;1521;53.584;9.938;2023-06-14T06:13:15;20.70;1.00
3023;DHT22;1521;53.584;9.938;2023-06-14T06:15:41;20.80;1.00
3023;DHT22;1521;53.584;9.938;2023-06-14T06:18:06;20.80;99.90
3023;DHT22;1521;53.584;9.938;2023-06-14T06:20:32;21.00;99.90
3023;DHT22;1521;53.584;9.938;2023-06-14T06:22:58;21.10;99.90
3023;DHT22;1521;53.584;9.938;2023-06-14T06:25:25;21.20;99.90
3023;DHT22;1521;53.584;9.938;2023-06-14T06:27:52;21.20;99.90
3023;DHT22;1521;53.584;9.938;2023-06-14T06:30:19;21.30;99.90
3023;DHT22;1521;53.584;9.938;2023-06-14T06:32:44;21.50;99.90
3023;DHT22;1521;53.584;9.938;2023-06-14T06:35:11;21.60;99.90
3023;DHT22;1521;53.584;9.938;2023-06-14T06:37:38;21.80;99.90
3023;DHT22;1521;53.584;9.938;2023-06-14T06:40:04;21.90;99.90
3023;DHT22;1521;53.584;9.938;2023-06-14T06:42:31;22.00;99.90
3023;DHT22;1521;53.584;9.938;2023-06-14T06:44:57;22.00;99.90
3023;DHT22;1521;53.584;9.938;2023-06-14T06:47:23;22.10;99.90
3023;DHT22;1521;53.584;9.938;2023-06-14T06:49:49;22.20;99.90
3023;DHT22;1521;53.584;9.938;2023-06-14T06:52:14;22.40;99.90
3023;DHT22;1521;53.584;9.938;2023-06-14T06:54:40;22.50;99.90
3023;DHT22;1521;53.584;9.938;2023-06-14T06:57:06;22.80;99.90
3023;DHT22;1521;53.584;9.938;2023-06-14T06:59:32;23.00;99.90
3023;DHT22;1521;53.584;9.938;2023-06-14T07:01:58;23.10;99.90
3023;DHT22;1521;53.584;9.938;2023-06-14T07:04:24;23.20;99.90
3023;DHT22;1521;53.584;9.938;2023-06-14T07:06:49;23.20;99.90
3023;DHT22;1521;53.584;9.938;2023-06-14T07:09:15;23.10;99.90
3023;DHT22;1521;53.584;9.938;2023-06-14T07:11:43;23.20;99.90
3023;DHT22;1521;53.584;9.938;2023-06-14T07:14:09;23.30;99.90
3023;DHT22;1521;53.584;9.938;2023-06-14T07:16:34;23.50;99.90
3023;DHT22;1521;53.584;9.938;2023-06-14T07:19:02;23.60;99.90
3023;DHT22;1521;53.584;9.938;2023-06-14T07:21:27;23.60;99.90
3023;DHT22;1521;53.584;9.938;2023-06-14T07:23:53;23.80;99.90
3023;DHT22;1521;53.584;9.938;2023-06-14T07:26:19;24.00;99.90
3023;DHT22;1521;53.584;9.938;2023-06-14T07:28:46;24.30;99.90
3023;DHT22;1521;53.584;9.938;2023-06-14T07:31:12;24.60;99.90
3023;DHT22;1521;53.584;9.938;2023-06-14T07:33:38;24.80;99.90
3023;DHT22;1521;53.584;9.938;2023-06-14T07:36:03;24.90;99.90
3023;DHT22;1521;53.584;9.938;2023-06-14T07:38:29;25.00;99.90
3023;DHT22;1521;53.584;9.938;2023-06-14T07:40:55;25.10;99.90
3023;DHT22;1521;53.584;9.938;2023-06-14T07:43:20;25.10;99.90
3023;DHT22;1521;53.584;9.938;2023-06-14T07:45:46;25.40;99.90
3023;DHT22;1521;53.584;9.938;2023-06-14T07:48:11;25.50;99.90
3023;DHT22;1521;53.584;9.938;2023-06-14T07:50:37;25.50;99.90
3023;DHT22;1521;53.584;9.938;2023-06-14T07:53:03;25.60;99.90
3023;DHT22;1521;53.584;9.938;2023-06-14T07:55:28;25.70;99.90
3023;DHT22;1521;53.584;9.938;2023-06-14T07:57:54;25.90;99.90
3023;DHT22;1521;53.584;9.938;2023-06-14T08:00:20;26.10;99.90
3023;DHT22;1521;53.584;9.938;2023-06-14T08:02:46;25.80;99.90
3023;DHT22;1521;53.584;9.938;2023-06-14T08:05:12;25.90;99.90
3023;DHT22;1521;53.584;9.938;2023-06-14T08:07:38;26.10;99.90
3023;DHT22;1521;53.584;9.938;2023-06-14T08:10:05;26.30;99.90
3023;DHT22;1521;53.584;9.938;2023-06-14T08:12:32;26.50;99.90
3023;DHT22;1521;53.584;9.938;2023-06-14T08:14:59;26.30;99.90
3023;DHT22;1521;53.584;9.938;2023-06-14T08:17:24;26.50;99.90
3023;DHT22;1521;53.584;9.938;2023-06-14T08:19:50;26.80;99.90
3023;DHT22;1521;53.584;9.938;2023-06-14T08:22:16;27.20;99.90
3023;DHT22;1521;53.584;9.938;2023-06-14T08:24:43;27.10;99.90
3023;DHT22;1521;53.584;9.938;2023-06-14T08:27:10;27.10;99.90
3023;DHT22;1521;53.584;9.938;2023-06-14T08:29:35;27.20;99.90
3023;DHT22;1521;53.584;9.938;2023-06-14T08:32:01;27.30;99.90
3023;DHT22;1521;53.584;9.938;2023-06-14T08:34:27;27.60;99.90
3023;DHT22;1521;53.584;9.938;2023-06-14T08:36:53;27.70;99.90
3023;DHT22;1521;53.584;9.938;2023-06-14T08:39:18;27.90;99.90
3023;DHT22;1521;53.584;9.938;2023-06-14T08:41:46;27.70;99.90
3023;DHT22;1521;53.584;9.938;2023-06-14T08:44:16;27.90;99.90
3023;DHT22;1521;53.584;9.938;2023-06-14T08:46:42;27.90;99.90
3023;DHT22;1521;53.584;9.938;2023-06-14T08:49:11;28.20;99.90
3023;DHT22;1521;53.584;9.938;2023-06-14T08:51:37;28.50;99.90
3023;DHT22;1521;53.584;9.938;2023-06-14T08:54:03;28.60;99.90
3023;DHT22;1521;53.584;9.938;2023-06-14T08:56:30;28.90;99.90
3023;DHT22;1521;53.584;9.938;2023-06-14T08:59:00;28.60;99.90
3023;DHT22;1521;53.584;9.938;2023-06-14T09:01:35;28.60;99.90
3023;DHT22;1521;53.584;9.938;2023-06-14T09:04:02;28.60;99.90
3023;DHT22;1521;53.584;9.938;2023-06-14T09:06:28;28.90;99.90
3023;DHT22;1521;53.584;9.938;2023-06-14T09:08:55;28.70;99.90
3023;DHT22;1521;53.584;9.938;2023-06-14T09:11:24;27.60;99.90
3023;DHT22;1521;53.584;9.938;2023-06-14T09:13:52;27.70;99.90
3023;DHT22;1521;53.584;9.938;2023-06-14T09:16:17;28.20;99.90
3023;DHT22;1521;53.584;9.938;2023-06-14T09:18:47;28.50;99.90
3023;DHT22;1521;53.584;9.938;2023-06-14T09:21:14;28.50;99.90
3023;DHT22;1521;53.584;9.938;2023-06-14T09:23:41;28.90;99.90
3023;DHT22;1521;53.584;9.938;2023-06-14T09:26:17;29.20;99.90
3023;DHT22;1521;53.584;9.938;2023-06-14T09:28:46;29.60;99.90
3023;DHT22;1521;53.584;9.938;2023-06-14T09:31:13;29.80;99.90
3023;DHT22;1521;53.584;9.938;2023-06-14T09:33:42;29.70;99.90
3023;DHT22;1521;53.584;9.938;2023-06-14T09:36:15;29.80;99.90
3023;DHT22;1521;53.584;9.938;2023-06-14T09:38:42;30.00;99.90
3023;DHT22;1521;53.584;9.938;2023-06-14T09:41:16;30.00;99.90
3023;DHT22;1521;53.584;9.938;2023-06-14T09:43:42;30.20;99.90
3023;DHT22;1521;53.584;9.938;2023-06-14T09:46:08;30.20;99.90
3023;DHT22;1521;53.584;9.938;2023-06-14T09:48:34;30.40;99.90
3023;DHT22;1521;53.584;9.938;2023-06-14T09:51:01;30.30;99.90
3023;DHT22;1521;53.584;9.938;2023-06-14T09:53:29;30.00;99.90
3023;DHT22;1521;53.584;9.938;2023-06-14T09:55:56;30.10;99.90
3023;DHT22;1521;53.584;9.938;2023-06-14T09:58:23;29.30;99.90
3023;DHT22;1521;53.584;9.938;2023-06-14T10:00:51;28.90;99.90
3023;DHT22;1521;53.584;9.938;2023-06-14T10:03:24;28.40;99.90
3023;DHT22;1521;53.584;9.938;2023-06-14T10:05:51;27.60;99.90
3023;DHT22;1521;53.584;9.938;2023-06-14T10:08:19;26.90;99.90
3023;DHT22;1521;53.584;9.938;2023-06-14T10:10:45;27.40;99.90
3023;DHT22;1521;53.584;9.938;2023-06-14T10:13:12;28.00;99.90
3023;DHT22;1521;53.584;9.938;2023-06-14T10:16:00;28.50;99.90
3023;DHT22;1521;53.584;9.938;2023-06-14T10:21:40;27.70;99.90
3023;DHT22;1521;53.584;9.938;2023-06-14T10:24:09;27.40;99.90
3023;DHT22;1521;53.584;9.938;2023-06-14T10:26:57;28.00;99.90
3023;DHT22;1521;53.584;9.938;2023-06-14T10:29:22;29.00;99.90
3023;DHT22;1521;53.584;9.938;2023-06-14T10:31:50;29.20;99.90
3023;DHT22;1521;53.584;9.938;2023-06-14T10:34:26;28.90;99.90
3023;DHT22;1521;53.584;9.938;2023-06-14T10:37:06;29.00;99.90
3023;DHT22;1521;53.584;9.938;2023-06-14T10:39:39;29.60;99.90
3023;DHT22;1521;53.584;9.938;2023-06-14T10:42:09;29.90;99.90
3023;DHT22;1521;53.584;9.938;2023-06-14T10:44:43;30.40;99.90
3023;DHT22;1521;53.584;9.938;2023-06-14T10:47:30;30.70;99.90
3023;DHT22;1521;53.584;9.938;2023-06-14T10:52:28;30.80;99.90
3023;DHT22;1521;53.584;9.938;2023-06-14T10:55:06;29.40;99.90
3023;DHT22;1521;53.584;9.938;2023-06-14T10:57:45;27.90;99.90
3023;DHT22;1521;53.584;9.938;2023-06-14T11:00:12;27.40;99.90
3023;DHT22;1521;53.584;9.938;2023-06-14T11:03:25;27.40;99.90
3023;DHT22;1521;53.584;9.938;2023-06-14T11:05:57;27.70;99.90
3023;DHT22;1521;53.584;9.938;2023-06-14T11:10:59;27.80;99.90
3023;DHT22;1521;53.584;9.938;2023-06-14T11:13:26;27.00;99.90
3023;DHT22;1521;53.584;9.938;2023-06-14T11:15:52;26.90;99.90
3023;DHT22;1521;53.584;9.938;2023-06-14T11:18:23;27.00;99.90
3023;DHT22;1521;53.584;9.938;2023-06-14T11:20:50;27.40;99.90
3023;DHT22;1521;53.584;9.938;2023-06-14T11:23:16;28.20;99.90
3023;DHT22;1521;53.584;9.938;2023-06-14T11:25:41;29.00;99.90
3023;DHT22;1521;53.584;9.938;2023-06-14T11:28:07;30.10;99.90
3023;DHT22;1521;53.584;9.938;2023-06-14T11:30:33;31.10;99.90
3023;DHT22;1521;53.584;9.938;2023-06-14T11:32:59;31.20;99.90
3023;DHT22;1521;53.584;9.938;2023-06-14T11:35:25;30.90;99.90
3023;DHT22;1521;53.584;9.938;2023-06-14T11:37:55;31.00;99.90
3023;DHT22;1521;53.584;9.938;2023-06-14T11:40:24;30.90;99.90
3023;DHT22;1521;53.584;9.938;2023-06-14T11:42:50;29.90;99.90
3023;DHT22;1521;53.584;9.938;2023-06-14T11:45:15;28.60;99.90
3023;DHT22;1521;53.584;9.938;2023-06-14T11:47:41;27.80;99.90
3023;DHT22;1521;53.584;9.938;2023-06-14T11:50:08;27.60;99.90
3023;DHT22;1521;53.584;9.938;2023-06-14T11:52:36;28.40;99.90
3023;DHT22;1521;53.584;9.938;2023-06-14T11:55:02;29.00;99.90
3023;DHT22;1521;53.584;9.938;2023-06-14T11:57:33;29.60;99.90
3023;DHT22;1521;53.584;9.938;2023-06-14T11:59:59;30.50;99.90
3023;DHT22;1521;53.584;9.938;2023-06-14T12:02:25;31.30;99.90
3023;DHT22;1521;53.584;9.938;2023-06-14T12:04:53;31.20;99.90
3023;DHT22;1521;53.584;9.938;2023-06-14T12:07:22;30.50;99.90
3023;DHT22;1521;53.584;9.938;2023-06-14T12:12:21;31.00;99.90
3023;DHT22;1521;53.584;9.938;2023-06-14T12:14:47;31.70;99.90
3023;DHT22;1521;53.584;9.938;2023-06-14T12:17:13;31.30;99.90
3023;DHT22;1521;53.584;9.938;2023-06-14T12:19:43;30.30;99.90
3023;DHT22;1521;53.584;9.938;2023-06-14T12:22:15;29.20;99.90
3023;DHT22;1521;53.584;9.938;2023-06-14T12:24:45;29.20;99.90
3023;DHT22;1521;53.584;9.938;2023-06-14T12:27:11;29.70;99.90
3023;DHT22;1521;53.584;9.938;2023-06-14T12:29:44;30.60;99.90
3023;DHT22;1521;53.584;9.938;2023-06-14T12:32:10;30.80;99.90
3023;DHT22;1521;53.584;9.938;2023-06-14T12:34:35;30.10;99.90
3023;DHT22;1521;53.584;9.938;2023-06-14T12:37:01;29.00;99.90
3023;DHT22;1521;53.584;9.938;2023-06-14T12:39:27;28.90;99.90
3023;DHT22;1521;53.584;9.938;2023-06-14T12:41:53;29.60;99.90
3023;DHT22;1521;53.584;9.938;2023-06-14T12:44:19;30.30;99.90
3023;DHT22;1521;53.584;9.938;2023-06-14T12:46:46;31.20;99.90
3023;DHT22;1521;53.584;9.938;2023-06-14T12:49:12;31.30;99.90
3023;DHT22;1521;53.584;9.938;2023-06-14T12:51:39;30.60;99.90
3023;DHT22;1521;53.584;9.938;2023-06-14T12:54:05;30.00;99.90
3023;DHT22;1521;53.584;9.938;2023-06-14T12:56:31;29.10;99.90
3023;DHT22;1521;53.584;9.938;2023-06-14T12:58:58;28.60;99.90
3023;DHT22;1521;53.584;9.938;2023-06-14T13:01:23;28.80;99.90
3023;DHT22;1521;53.584;9.938;2023-06-14T13:03:49;29.40;99.90
3023;DHT22;1521;53.584;9.938;2023-06-14T13:06:17;30.00;99.90
3023;DHT22;1521;53.584;9.938;2023-06-14T13:08:42;30.80;99.90
3023;DHT22;1521;53.584;9.938;2023-06-14T13:11:08;30.50;99.90
3023;DHT22;1521;53.584;9.938;2023-06-14T13:13:34;29.50;99.90
3023;DHT22;1521;53.584;9.938;2023-06-14T13:15:59;29.60;99.90
3023;DHT22;1521;53.584;9.938;2023-06-14T13:18:25;29.50;99.90
3023;DHT22;1521;53.584;9.938;2023-06-14T13:20:51;29.30;99.90
3023;DHT22;1521;53.584;9.938;2023-06-14T13:23:17;28.70;99.90
3023;DHT22;1521;53.584;9.938;2023-06-14T13:25:43;27.90;99.90
3023;DHT22;1521;53.584;9.938;2023-06-14T13:28:09;27.50;99.90
3023;DHT22;1521;53.584;9.938;2023-06-14T13:30:34;28.10;99.90
3023;DHT22;1521;53.584;9.938;2023-06-14T13:33:01;29.10;99.90
3023;DHT22;1521;53.584;9.938;2023-06-14T13:35:26;30.00;99.90
3023;DHT22;1521;53.584;9.938;2023-06-14T13:37:52;29.90;99.90
3023;DHT22;1521;53.584;9.938;2023-06-14T13:40:18;29.00;99.90
3023;DHT22;1521;53.584;9.938;2023-06-14T13:42:44;27.90;99.90
3023;DHT22;1521;53.584;9.938;2023-06-14T13:45:11;26.90;99.90
3023;DHT22;1521;53.584;9.938;2023-06-14T13:47:37;26.30;99.90
3023;DHT22;1521;53.584;9.938;2023-06-14T13:50:04;27.00;99.90
3023;DHT22;1521;53.584;9.938;2023-06-14T13:52:29;28.20;99.90
3023;DHT22;1521;53.584;9.938;2023-06-14T13:54:55;29.00;99.90
3023;DHT22;1521;53.584;9.938;2023-06-14T13:57:20;29.20;99.90
3023;DHT22;1521;53.584;9.938;2023-06-14T13:59:47;29.30;99.90
3023;DHT22;1521;53.584;9.938;2023-06-14T14:02:13;29.60;99.90
3023;DHT22;1521;53.584;9.938;2023-06-14T14:04:39;29.80;99.90
3023;DHT22;1521;53.584;9.938;2023-06-14T14:07:05;30.20;99.90
3023;DHT22;1521;53.584;9.938;2023-06-14T14:09:35;30.50;99.90
3023;DHT22;1521;53.584;9.938;2023-06-14T14:12:01;31.00;99.90
3023;DHT22;1521;53.584;9.938;2023-06-14T14:14:28;31.20;99.90
3023;DHT22;1521;53.584;9.938;2023-06-14T14:16:53;31.40;99.90
3023;DHT22;1521;53.584;9.938;2023-06-14T14:19:21;31.50;99.90
3023;DHT22;1521;53.584;9.938;2023-06-14T14:21:47;31.50;99.90
3023;DHT22;1521;53.584;9.938;2023-06-14T14:24:13;31.60;99.90
3023;DHT22;1521;53.584;9.938;2023-06-14T14:26:39;31.10;99.90
3023;DHT22;1521;53.584;9.938;2023-06-14T14:29:05;30.00;99.90
3023;DHT22;1521;53.584;9.938;2023-06-14T14:31:31;28.60;99.90
3023;DHT22;1521;53.584;9.938;2023-06-14T14:33:56;27.50;99.90
3023;DHT22;1521;53.584;9.938;2023-06-14T14:36:22;27.20;99.90
3023;DHT22;1521;53.584;9.938;2023-06-14T14:38:47;27.70;99.90
3023;DHT22;1521;53.584;9.938;2023-06-14T14:41:13;28.60;99.90
3023;DHT22;1521;53.584;9.938;2023-06-14T14:43:39;29.20;99.90
3023;DHT22;1521;53.584;9.938;2023-06-14T14:46:05;29.90;99.90
3023;DHT22;1521;53.584;9.938;2023-06-14T14:48:31;30.40;99.90
3023;DHT22;1521;53.584;9.938;2023-06-14T14:50:57;30.60;99.90
3023;DHT22;1521;53.584;9.938;2023-06-14T14:53:22;30.60;99.90
3023;DHT22;1521;53.584;9.938;2023-06-14T14:55:48;29.70;99.90
3023;DHT22;1521;53.584;9.938;2023-06-14T14:58:14;28.70;99.90
3023;DHT22;1521;53.584;9.938;2023-06-14T15:00:44;28.00;99.90
3023;DHT22;1521;53.584;9.938;2023-06-14T15:03:10;28.00;99.90
3023;DHT22;1521;53.584;9.938;2023-06-14T15:05:36;27.80;99.90
3023;DHT22;1521;53.584;9.938;2023-06-14T15:08:03;27.40;99.90
3023;DHT22;1521;53.584;9.938;2023-06-14T15:10:28;26.70;99.90
3023;DHT22;1521;53.584;9.938;2023-06-14T15:12:54;26.20;99.90
3023;DHT22;1521;53.584;9.938;2023-06-14T15:15:22;25.80;99.90
3023;DHT22;1521;53.584;9.938;2023-06-14T15:17:47;25.40;99.90
3023;DHT22;1521;53.584;9.938;2023-06-14T15:20:13;25.50;99.90
3023;DHT22;1521;53.584;9.938;2023-06-14T15:22:40;26.10;99.90
3023;DHT22;1521;53.584;9.938;2023-06-14T15:25:06;26.80;99.90
3023;DHT22;1521;53.584;9.938;2023-06-14T15:27:32;27.30;99.90
3023;DHT22;1521;53.584;9.938;2023-06-14T15:29:57;27.70;99.90
3023;DHT22;1521;53.584;9.938;2023-06-14T15:32:23;27.80;99.90
3023;DHT22;1521;53.584;9.938;2023-06-14T15:34:48;28.00;99.90
3023;DHT22;1521;53.584;9.938;2023-06-14T15:37:14;28.00;99.90
3023;DHT22;1521;53.584;9.938;2023-06-14T15:39:40;27.60;99.90
3023;DHT22;1521;53.584;9.938;2023-06-14T15:42:05;26.90;99.90
3023;DHT22;1521;53.584;9.938;2023-06-14T15:44:33;26.10;99.90
3023;DHT22;1521;53.584;9.938;2023-06-14T15:46:58;25.60;99.90
3023;DHT22;1521;53.584;9.938;2023-06-14T15:49:24;25.50;99.90
3023;DHT22;1521;53.584;9.938;2023-06-14T15:51:49;26.00;99.90
3023;DHT22;1521;53.584;9.938;2023-06-14T15:54:15;26.40;99.90
3023;DHT22;1521;53.584;9.938;2023-06-14T15:56:41;26.70;99.90
3023;DHT22;1521;53.584;9.938;2023-06-14T15:59:06;26.90;99.90
3023;DHT22;1521;53.584;9.938;2023-06-14T16:01:32;26.80;99.90
3023;DHT22;1521;53.584;9.938;2023-06-14T16:03:58;26.70;99.90
3023;DHT22;1521;53.584;9.938;2023-06-14T16:06:24;26.70;99.90
3023;DHT22;1521;53.584;9.938;2023-06-14T16:08:49;26.50;99.90
3023;DHT22;1521;53.584;9.938;2023-06-14T16:11:18;26.50;99.90
3023;DHT22;1521;53.584;9.938;2023-06-14T16:13:46;26.50;99.90
3023;DHT22;1521;53.584;9.938;2023-06-14T16:16:11;26.50;99.90